Strandell, Washington
Current Conditions -  °F | °C
As of 8:00 AM on Tuesday 21 Oct 2014 (Local Time) from CYXX Reporting Station
Rain Showers Rain Showers  
Wind Chill: 54°   Ceiling: 4000
Heat Index: 54°   Visibility: 15mi
Dew Point: 52°   Wind: 9mph
Humidity: 94%   Direction: 210°SSW
Pressure: 29.83"   Gusts: NA
Location:  48.9068°N, 122.295°W
Report Text: CYXX 211500Z 21008KT 15SM -SHRA FEW015 SCT025 BKN040 BKN100 12/11 A2983 RMK SF1SC3SC2AC1 SLP100
Loading
Personal Weather Stations






























Interactive Weather Map
Tropical Storm Tracking
New forecast layout! Learn more

10-Day Weather Forecast

Advertisements
Track Severe Weather on mobile